sensor_id;sensor_type;location;lat;lon;timestamp;P1;durP1;ratioP1;P2;durP2;ratioP2
14770;SDS011;7477;45.222;5.688;2024-01-27T00:00:02;8.38;;;5.72;;
14770;SDS011;7477;45.222;5.688;2024-01-27T00:03:21;12.05;;;4.70;;
14770;SDS011;7477;45.222;5.688;2024-01-27T00:06:40;5.60;;;4.30;;
14770;SDS011;7477;45.222;5.688;2024-01-27T00:09:59;6.90;;;4.43;;
14770;SDS011;7477;45.222;5.688;2024-01-27T00:13:22;10.57;;;4.80;;
14770;SDS011;7477;45.222;5.688;2024-01-27T00:16:41;14.30;;;7.65;;
14770;SDS011;7477;45.222;5.688;2024-01-27T00:20:00;8.68;;;5.65;;
14770;SDS011;7477;45.222;5.688;2024-01-27T00:23:19;7.07;;;4.85;;
14770;SDS011;7477;45.222;5.688;2024-01-27T00:26:39;5.90;;;4.65;;
14770;SDS011;7477;45.222;5.688;2024-01-27T00:29:58;7.30;;;5.03;;
14770;SDS011;7477;45.222;5.688;2024-01-27T00:33:17;7.15;;;4.90;;
14770;SDS011;7477;45.222;5.688;2024-01-27T00:36:36;6.97;;;4.78;;
14770;SDS011;7477;45.222;5.688;2024-01-27T00:39:55;6.20;;;4.57;;
14770;SDS011;7477;45.222;5.688;2024-01-27T00:43:14;7.07;;;5.07;;
14770;SDS011;7477;45.222;5.688;2024-01-27T00:46:34;11.85;;;5.63;;
14770;SDS011;7477;45.222;5.688;2024-01-27T00:49:53;7.40;;;5.88;;
14770;SDS011;7477;45.222;5.688;2024-01-27T00:53:13;8.18;;;5.63;;
14770;SDS011;7477;45.222;5.688;2024-01-27T00:56:32;11.07;;;6.25;;
14770;SDS011;7477;45.222;5.688;2024-01-27T00:59:53;8.65;;;6.20;;
14770;SDS011;7477;45.222;5.688;2024-01-27T01:03:13;7.32;;;5.55;;
14770;SDS011;7477;45.222;5.688;2024-01-27T01:06:32;10.43;;;5.95;;
14770;SDS011;7477;45.222;5.688;2024-01-27T01:09:51;12.45;;;6.15;;
14770;SDS011;7477;45.222;5.688;2024-01-27T01:13:10;6.68;;;5.53;;
14770;SDS011;7477;45.222;5.688;2024-01-27T01:16:29;32.25;;;11.75;;
14770;SDS011;7477;45.222;5.688;2024-01-27T01:19:48;19.70;;;9.70;;
14770;SDS011;7477;45.222;5.688;2024-01-27T01:23:08;39.10;;;14.40;;
14770;SDS011;7477;45.222;5.688;2024-01-27T01:26:27;26.83;;;12.27;;
14770;SDS011;7477;45.222;5.688;2024-01-27T01:29:47;27.30;;;11.80;;
14770;SDS011;7477;45.222;5.688;2024-01-27T01:33:06;27.00;;;11.10;;
14770;SDS011;7477;45.222;5.688;2024-01-27T01:36:25;24.60;;;10.85;;
14770;SDS011;7477;45.222;5.688;2024-01-27T01:39:44;22.58;;;10.88;;
14770;SDS011;7477;45.222;5.688;2024-01-27T01:43:03;24.65;;;11.85;;
14770;SDS011;7477;45.222;5.688;2024-01-27T01:46:28;19.58;;;9.63;;
14770;SDS011;7477;45.222;5.688;2024-01-27T01:49:48;23.25;;;12.38;;
14770;SDS011;7477;45.222;5.688;2024-01-27T01:53:08;25.48;;;13.15;;
14770;SDS011;7477;45.222;5.688;2024-01-27T01:56:27;21.45;;;11.95;;
14770;SDS011;7477;45.222;5.688;2024-01-27T01:59:47;27.15;;;13.18;;
14770;SDS011;7477;45.222;5.688;2024-01-27T02:03:10;9.45;;;6.22;;
14770;SDS011;7477;45.222;5.688;2024-01-27T02:06:32;9.23;;;6.50;;
14770;SDS011;7477;45.222;5.688;2024-01-27T02:09:51;8.02;;;4.72;;
14770;SDS011;7477;45.222;5.688;2024-01-27T02:13:17;9.57;;;6.40;;
14770;SDS011;7477;45.222;5.688;2024-01-27T02:16:40;9.35;;;6.15;;
14770;SDS011;7477;45.222;5.688;2024-01-27T02:19:59;9.18;;;4.70;;
14770;SDS011;7477;45.222;5.688;2024-01-27T02:23:19;7.45;;;3.70;;
14770;SDS011;7477;45.222;5.688;2024-01-27T02:26:38;4.95;;;3.75;;
14770;SDS011;7477;45.222;5.688;2024-01-27T02:29:57;4.45;;;2.60;;
14770;SDS011;7477;45.222;5.688;2024-01-27T02:33:16;4.05;;;2.97;;
14770;SDS011;7477;45.222;5.688;2024-01-27T02:36:35;3.85;;;2.95;;
14770;SDS011;7477;45.222;5.688;2024-01-27T02:39:54;4.80;;;3.33;;
14770;SDS011;7477;45.222;5.688;2024-01-27T02:43:13;5.35;;;3.70;;
14770;SDS011;7477;45.222;5.688;2024-01-27T02:46:32;5.68;;;3.35;;
14770;SDS011;7477;45.222;5.688;2024-01-27T02:49:52;3.60;;;2.97;;
14770;SDS011;7477;45.222;5.688;2024-01-27T02:53:11;3.72;;;3.05;;
14770;SDS011;7477;45.222;5.688;2024-01-27T02:56:30;4.10;;;3.10;;
14770;SDS011;7477;45.222;5.688;2024-01-27T02:59:49;4.20;;;2.70;;
14770;SDS011;7477;45.222;5.688;2024-01-27T03:03:08;3.85;;;2.88;;
14770;SDS011;7477;45.222;5.688;2024-01-27T03:06:27;4.50;;;2.60;;
14770;SDS011;7477;45.222;5.688;2024-01-27T03:09:46;2.83;;;2.33;;
14770;SDS011;7477;45.222;5.688;2024-01-27T03:13:06;2.67;;;2.05;;
14770;SDS011;7477;45.222;5.688;2024-01-27T03:16:25;2.97;;;2.13;;
14770;SDS011;7477;45.222;5.688;2024-01-27T03:19:45;3.17;;;2.10;;
14770;SDS011;7477;45.222;5.688;2024-01-27T03:23:04;2.65;;;2.42;;
14770;SDS011;7477;45.222;5.688;2024-01-27T03:26:23;4.82;;;2.70;;
14770;SDS011;7477;45.222;5.688;2024-01-27T03:29:42;3.63;;;2.30;;
14770;SDS011;7477;45.222;5.688;2024-01-27T03:33:01;2.78;;;2.38;;
14770;SDS011;7477;45.222;5.688;2024-01-27T03:36:21;2.97;;;2.40;;
14770;SDS011;7477;45.222;5.688;2024-01-27T03:39:43;2.88;;;2.13;;
14770;SDS011;7477;45.222;5.688;2024-01-27T03:43:02;3.22;;;2.17;;
14770;SDS011;7477;45.222;5.688;2024-01-27T03:46:21;3.78;;;2.40;;
14770;SDS011;7477;45.222;5.688;2024-01-27T03:49:40;2.83;;;1.60;;
14770;SDS011;7477;45.222;5.688;2024-01-27T03:52:59;2.65;;;1.92;;
14770;SDS011;7477;45.222;5.688;2024-01-27T03:56:18;2.63;;;1.92;;
14770;SDS011;7477;45.222;5.688;2024-01-27T03:59:39;3.42;;;2.10;;
14770;SDS011;7477;45.222;5.688;2024-01-27T04:02:59;1.67;;;1.58;;
14770;SDS011;7477;45.222;5.688;2024-01-27T04:06:19;2.63;;;1.80;;
14770;SDS011;7477;45.222;5.688;2024-01-27T04:09:38;3.38;;;1.83;;
14770;SDS011;7477;45.222;5.688;2024-01-27T04:12:57;3.13;;;2.30;;
14770;SDS011;7477;45.222;5.688;2024-01-27T04:16:16;2.70;;;2.00;;
14770;SDS011;7477;45.222;5.688;2024-01-27T04:19:35;2.97;;;2.08;;
14770;SDS011;7477;45.222;5.688;2024-01-27T04:22:55;2.55;;;2.10;;
14770;SDS011;7477;45.222;5.688;2024-01-27T04:26:14;3.25;;;2.35;;
14770;SDS011;7477;45.222;5.688;2024-01-27T04:29:35;3.95;;;2.70;;
14770;SDS011;7477;45.222;5.688;2024-01-27T04:32:54;3.10;;;2.60;;
14770;SDS011;7477;45.222;5.688;2024-01-27T04:36:13;4.00;;;3.13;;
14770;SDS011;7477;45.222;5.688;2024-01-27T04:39:33;3.35;;;2.75;;
14770;SDS011;7477;45.222;5.688;2024-01-27T04:42:52;3.40;;;3.08;;
14770;SDS011;7477;45.222;5.688;2024-01-27T04:46:11;2.65;;;2.40;;
14770;SDS011;7477;45.222;5.688;2024-01-27T04:49:30;4.82;;;3.70;;
14770;SDS011;7477;45.222;5.688;2024-01-27T04:52:49;4.40;;;3.25;;
14770;SDS011;7477;45.222;5.688;2024-01-27T04:56:08;6.55;;;3.65;;
14770;SDS011;7477;45.222;5.688;2024-01-27T04:59:28;4.15;;;3.13;;
14770;SDS011;7477;45.222;5.688;2024-01-27T05:02:47;5.72;;;3.75;;
14770;SDS011;7477;45.222;5.688;2024-01-27T05:06:07;4.47;;;3.70;;
14770;SDS011;7477;45.222;5.688;2024-01-27T05:09:28;4.13;;;3.53;;
14770;SDS011;7477;45.222;5.688;2024-01-27T05:12:47;4.75;;;3.53;;
14770;SDS011;7477;45.222;5.688;2024-01-27T05:16:06;4.57;;;3.60;;
14770;SDS011;7477;45.222;5.688;2024-01-27T05:19:26;4.05;;;3.50;;
14770;SDS011;7477;45.222;5.688;2024-01-27T05:22:45;4.40;;;3.22;;
14770;SDS011;7477;45.222;5.688;2024-01-27T05:26:05;7.70;;;3.85;;
14770;SDS011;7477;45.222;5.688;2024-01-27T05:29:28;6.57;;;4.15;;
14770;SDS011;7477;45.222;5.688;2024-01-27T05:32:48;3.67;;;2.92;;
14770;SDS011;7477;45.222;5.688;2024-01-27T05:36:07;3.88;;;3.58;;
14770;SDS011;7477;45.222;5.688;2024-01-27T05:39:26;4.03;;;3.40;;
14770;SDS011;7477;45.222;5.688;2024-01-27T05:42:46;4.82;;;3.95;;
14770;SDS011;7477;45.222;5.688;2024-01-27T05:46:06;7.85;;;3.85;;
14770;SDS011;7477;45.222;5.688;2024-01-27T05:49:28;4.50;;;3.45;;
14770;SDS011;7477;45.222;5.688;2024-01-27T05:52:47;7.95;;;4.13;;
14770;SDS011;7477;45.222;5.688;2024-01-27T05:56:06;5.70;;;3.92;;
14770;SDS011;7477;45.222;5.688;2024-01-27T05:59:26;5.28;;;3.47;;
14770;SDS011;7477;45.222;5.688;2024-01-27T06:02:45;4.28;;;3.50;;
14770;SDS011;7477;45.222;5.688;2024-01-27T06:06:04;6.90;;;4.50;;
14770;SDS011;7477;45.222;5.688;2024-01-27T06:09:23;7.30;;;5.00;;
14770;SDS011;7477;45.222;5.688;2024-01-27T06:12:42;5.15;;;4.13;;
14770;SDS011;7477;45.222;5.688;2024-01-27T06:16:02;5.15;;;3.67;;
14770;SDS011;7477;45.222;5.688;2024-01-27T06:19:25;7.53;;;3.80;;
14770;SDS011;7477;45.222;5.688;2024-01-27T06:22:45;5.18;;;3.80;;
14770;SDS011;7477;45.222;5.688;2024-01-27T06:26:07;5.65;;;4.32;;
14770;SDS011;7477;45.222;5.688;2024-01-27T06:29:27;6.22;;;4.13;;
14770;SDS011;7477;45.222;5.688;2024-01-27T06:32:47;5.28;;;3.88;;
14770;SDS011;7477;45.222;5.688;2024-01-27T06:36:07;5.68;;;4.13;;
14770;SDS011;7477;45.222;5.688;2024-01-27T06:39:28;6.03;;;3.67;;
14770;SDS011;7477;45.222;5.688;2024-01-27T06:42:48;5.45;;;3.90;;
14770;SDS011;7477;45.222;5.688;2024-01-27T06:46:07;4.18;;;3.40;;
14770;SDS011;7477;45.222;5.688;2024-01-27T06:49:26;4.85;;;3.70;;
14770;SDS011;7477;45.222;5.688;2024-01-27T06:52:48;5.13;;;3.92;;
14770;SDS011;7477;45.222;5.688;2024-01-27T06:56:08;6.22;;;3.70;;
14770;SDS011;7477;45.222;5.688;2024-01-27T06:59:28;5.15;;;4.53;;
14770;SDS011;7477;45.222;5.688;2024-01-27T07:02:47;5.55;;;4.63;;
14770;SDS011;7477;45.222;5.688;2024-01-27T07:06:06;6.00;;;4.45;;
14770;SDS011;7477;45.222;5.688;2024-01-27T07:09:25;5.75;;;3.50;;
14770;SDS011;7477;45.222;5.688;2024-01-27T07:12:44;5.75;;;4.55;;
14770;SDS011;7477;45.222;5.688;2024-01-27T07:16:04;5.05;;;3.47;;
14770;SDS011;7477;45.222;5.688;2024-01-27T07:19:24;4.90;;;3.63;;
14770;SDS011;7477;45.222;5.688;2024-01-27T07:22:43;6.78;;;4.47;;
14770;SDS011;7477;45.222;5.688;2024-01-27T07:26:02;11.27;;;5.57;;
14770;SDS011;7477;45.222;5.688;2024-01-27T07:29:22;8.20;;;4.95;;
14770;SDS011;7477;45.222;5.688;2024-01-27T07:32:41;9.73;;;5.47;;
14770;SDS011;7477;45.222;5.688;2024-01-27T07:36:00;6.90;;;4.50;;
14770;SDS011;7477;45.222;5.688;2024-01-27T07:39:20;6.03;;;4.43;;
14770;SDS011;7477;45.222;5.688;2024-01-27T07:42:39;6.05;;;4.43;;
14770;SDS011;7477;45.222;5.688;2024-01-27T07:46:00;5.95;;;4.72;;
14770;SDS011;7477;45.222;5.688;2024-01-27T07:49:19;7.72;;;5.60;;
14770;SDS011;7477;45.222;5.688;2024-01-27T07:52:38;5.85;;;4.93;;
14770;SDS011;7477;45.222;5.688;2024-01-27T07:55:58;5.95;;;4.63;;
14770;SDS011;7477;45.222;5.688;2024-01-27T07:59:17;7.63;;;5.55;;
14770;SDS011;7477;45.222;5.688;2024-01-27T08:02:37;7.40;;;5.38;;
14770;SDS011;7477;45.222;5.688;2024-01-27T08:05:56;7.43;;;5.45;;
14770;SDS011;7477;45.222;5.688;2024-01-27T08:09:16;7.00;;;4.97;;
14770;SDS011;7477;45.222;5.688;2024-01-27T08:12:36;9.57;;;6.65;;
14770;SDS011;7477;45.222;5.688;2024-01-27T08:15:55;9.40;;;6.65;;
14770;SDS011;7477;45.222;5.688;2024-01-27T08:19:15;11.85;;;6.53;;
14770;SDS011;7477;45.222;5.688;2024-01-27T08:22:38;9.15;;;6.15;;
14770;SDS011;7477;45.222;5.688;2024-01-27T08:25:58;8.13;;;5.90;;
14770;SDS011;7477;45.222;5.688;2024-01-27T08:29:17;7.10;;;5.93;;
14770;SDS011;7477;45.222;5.688;2024-01-27T08:32:36;9.10;;;6.97;;
14770;SDS011;7477;45.222;5.688;2024-01-27T08:35:55;9.27;;;6.53;;
14770;SDS011;7477;45.222;5.688;2024-01-27T08:39:15;11.98;;;7.38;;
14770;SDS011;7477;45.222;5.688;2024-01-27T08:42:34;11.57;;;8.07;;
14770;SDS011;7477;45.222;5.688;2024-01-27T08:45:53;13.00;;;8.02;;
14770;SDS011;7477;45.222;5.688;2024-01-27T08:49:13;11.32;;;7.03;;
14770;SDS011;7477;45.222;5.688;2024-01-27T08:52:35;15.45;;;8.52;;
14770;SDS011;7477;45.222;5.688;2024-01-27T08:55:55;13.25;;;9.27;;
14770;SDS011;7477;45.222;5.688;2024-01-27T08:59:14;13.68;;;8.95;;
14770;SDS011;7477;45.222;5.688;2024-01-27T09:02:33;13.98;;;9.27;;
14770;SDS011;7477;45.222;5.688;2024-01-27T09:05:52;13.52;;;8.55;;
14770;SDS011;7477;45.222;5.688;2024-01-27T09:09:11;16.23;;;10.52;;
14770;SDS011;7477;45.222;5.688;2024-01-27T09:12:30;10.68;;;7.88;;
14770;SDS011;7477;45.222;5.688;2024-01-27T09:15:50;10.88;;;8.32;;
14770;SDS011;7477;45.222;5.688;2024-01-27T09:19:09;9.52;;;6.43;;
14770;SDS011;7477;45.222;5.688;2024-01-27T09:22:29;12.32;;;7.35;;
14770;SDS011;7477;45.222;5.688;2024-01-27T09:25:48;8.20;;;6.35;;
14770;SDS011;7477;45.222;5.688;2024-01-27T09:29:07;10.85;;;6.65;;
14770;SDS011;7477;45.222;5.688;2024-01-27T09:32:28;7.47;;;5.45;;
14770;SDS011;7477;45.222;5.688;2024-01-27T09:35:47;8.25;;;5.18;;
14770;SDS011;7477;45.222;5.688;2024-01-27T09:39:06;6.35;;;5.30;;
14770;SDS011;7477;45.222;5.688;2024-01-27T09:42:25;10.30;;;6.25;;
14770;SDS011;7477;45.222;5.688;2024-01-27T09:45:45;8.82;;;5.82;;
14770;SDS011;7477;45.222;5.688;2024-01-27T09:49:04;8.05;;;5.30;;
14770;SDS011;7477;45.222;5.688;2024-01-27T09:52:24;7.40;;;5.07;;
14770;SDS011;7477;45.222;5.688;2024-01-27T09:55:43;9.30;;;6.80;;
14770;SDS011;7477;45.222;5.688;2024-01-27T09:59:04;10.18;;;6.30;;
14770;SDS011;7477;45.222;5.688;2024-01-27T10:02:24;11.57;;;7.45;;
14770;SDS011;7477;45.222;5.688;2024-01-27T10:05:45;8.48;;;5.50;;
14770;SDS011;7477;45.222;5.688;2024-01-27T10:09:05;11.35;;;7.60;;
14770;SDS011;7477;45.222;5.688;2024-01-27T10:12:25;8.27;;;5.93;;
14770;SDS011;7477;45.222;5.688;2024-01-27T10:15:45;8.40;;;5.85;;
14770;SDS011;7477;45.222;5.688;2024-01-27T10:19:04;7.07;;;5.40;;
14770;SDS011;7477;45.222;5.688;2024-01-27T10:22:23;8.98;;;6.07;;
14770;SDS011;7477;45.222;5.688;2024-01-27T10:25:45;7.70;;;5.93;;
14770;SDS011;7477;45.222;5.688;2024-01-27T10:29:04;6.47;;;5.20;;
14770;SDS011;7477;45.222;5.688;2024-01-27T10:32:23;6.22;;;4.93;;
14770;SDS011;7477;45.222;5.688;2024-01-27T10:35:43;5.55;;;5.03;;
14770;SDS011;7477;45.222;5.688;2024-01-27T10:39:02;8.30;;;5.38;;
14770;SDS011;7477;45.222;5.688;2024-01-27T10:42:32;10.15;;;7.07;;
14770;SDS011;7477;45.222;5.688;2024-01-27T10:45:52;5.63;;;4.70;;
14770;SDS011;7477;45.222;5.688;2024-01-27T10:49:12;6.65;;;4.30;;
14770;SDS011;7477;45.222;5.688;2024-01-27T10:52:32;7.13;;;4.70;;
14770;SDS011;7477;45.222;5.688;2024-01-27T10:55:53;5.45;;;4.30;;
14770;SDS011;7477;45.222;5.688;2024-01-27T10:59:16;4.40;;;4.00;;
14770;SDS011;7477;45.222;5.688;2024-01-27T11:02:37;4.32;;;3.72;;
14770;SDS011;7477;45.222;5.688;2024-01-27T11:05:57;4.47;;;3.03;;
14770;SDS011;7477;45.222;5.688;2024-01-27T11:09:18;4.45;;;3.75;;
14770;SDS011;7477;45.222;5.688;2024-01-27T11:12:39;5.00;;;3.67;;
14770;SDS011;7477;45.222;5.688;2024-01-27T11:15:59;4.05;;;3.15;;
14770;SDS011;7477;45.222;5.688;2024-01-27T11:19:18;7.15;;;5.00;;
14770;SDS011;7477;45.222;5.688;2024-01-27T11:22:39;4.72;;;4.28;;
14770;SDS011;7477;45.222;5.688;2024-01-27T11:26:03;6.82;;;5.18;;
14770;SDS011;7477;45.222;5.688;2024-01-27T11:29:26;6.72;;;5.40;;
14770;SDS011;7477;45.222;5.688;2024-01-27T11:32:46;7.95;;;5.90;;
14770;SDS011;7477;45.222;5.688;2024-01-27T11:36:07;11.55;;;6.97;;
14770;SDS011;7477;45.222;5.688;2024-01-27T11:39:27;12.18;;;6.75;;
14770;SDS011;7477;45.222;5.688;2024-01-27T11:42:55;6.93;;;5.30;;
14770;SDS011;7477;45.222;5.688;2024-01-27T11:46:15;9.88;;;6.38;;
14770;SDS011;7477;45.222;5.688;2024-01-27T11:49:34;8.25;;;5.63;;
14770;SDS011;7477;45.222;5.688;2024-01-27T11:52:54;8.57;;;6.00;;
14770;SDS011;7477;45.222;5.688;2024-01-27T11:56:14;6.68;;;5.22;;
14770;SDS011;7477;45.222;5.688;2024-01-27T11:59:34;11.75;;;7.80;;
14770;SDS011;7477;45.222;5.688;2024-01-27T12:02:54;9.13;;;6.57;;
14770;SDS011;7477;45.222;5.688;2024-01-27T12:06:13;10.10;;;6.85;;
14770;SDS011;7477;45.222;5.688;2024-01-27T12:09:33;9.25;;;7.00;;
14770;SDS011;7477;45.222;5.688;2024-01-27T12:12:54;7.97;;;5.53;;
14770;SDS011;7477;45.222;5.688;2024-01-27T12:16:14;9.20;;;6.90;;
14770;SDS011;7477;45.222;5.688;2024-01-27T12:19:34;7.38;;;6.20;;
14770;SDS011;7477;45.222;5.688;2024-01-27T12:23:03;7.78;;;5.65;;
14770;SDS011;7477;45.222;5.688;2024-01-27T12:26:30;6.90;;;5.22;;
14770;SDS011;7477;45.222;5.688;2024-01-27T12:29:50;7.93;;;5.30;;
14770;SDS011;7477;45.222;5.688;2024-01-27T12:33:09;8.38;;;6.30;;
14770;SDS011;7477;45.222;5.688;2024-01-27T12:36:31;8.57;;;6.47;;
14770;SDS011;7477;45.222;5.688;2024-01-27T12:39:50;7.38;;;4.93;;
14770;SDS011;7477;45.222;5.688;2024-01-27T12:43:10;4.28;;;3.67;;
14770;SDS011;7477;45.222;5.688;2024-01-27T12:46:29;6.05;;;4.20;;
14770;SDS011;7477;45.222;5.688;2024-01-27T12:49:48;3.60;;;3.28;;
14770;SDS011;7477;45.222;5.688;2024-01-27T12:53:08;4.50;;;3.40;;
14770;SDS011;7477;45.222;5.688;2024-01-27T12:56:27;3.47;;;2.80;;
14770;SDS011;7477;45.222;5.688;2024-01-27T12:59:46;4.18;;;3.38;;
14770;SDS011;7477;45.222;5.688;2024-01-27T13:03:06;3.83;;;2.95;;
14770;SDS011;7477;45.222;5.688;2024-01-27T13:06:26;2.90;;;2.58;;
14770;SDS011;7477;45.222;5.688;2024-01-27T13:09:49;3.30;;;2.88;;
14770;SDS011;7477;45.222;5.688;2024-01-27T13:13:08;3.25;;;2.67;;
14770;SDS011;7477;45.222;5.688;2024-01-27T13:16:27;3.40;;;3.10;;
14770;SDS011;7477;45.222;5.688;2024-01-27T13:19:46;4.43;;;3.00;;
14770;SDS011;7477;45.222;5.688;2024-01-27T13:23:05;4.78;;;3.40;;
14770;SDS011;7477;45.222;5.688;2024-01-27T13:26:26;4.00;;;3.30;;
14770;SDS011;7477;45.222;5.688;2024-01-27T13:29:46;5.57;;;3.13;;
14770;SDS011;7477;45.222;5.688;2024-01-27T13:33:05;5.43;;;3.72;;
14770;SDS011;7477;45.222;5.688;2024-01-27T13:36:25;5.07;;;3.88;;
14770;SDS011;7477;45.222;5.688;2024-01-27T13:39:44;4.32;;;3.70;;
14770;SDS011;7477;45.222;5.688;2024-01-27T13:43:04;3.78;;;3.33;;
14770;SDS011;7477;45.222;5.688;2024-01-27T13:46:23;3.38;;;3.08;;
14770;SDS011;7477;45.222;5.688;2024-01-27T13:49:43;4.97;;;3.05;;
14770;SDS011;7477;45.222;5.688;2024-01-27T13:53:03;3.88;;;3.03;;
14770;SDS011;7477;45.222;5.688;2024-01-27T13:56:24;3.53;;;3.17;;
14770;SDS011;7477;45.222;5.688;2024-01-27T13:59:44;3.63;;;2.67;;
14770;SDS011;7477;45.222;5.688;2024-01-27T14:03:03;3.70;;;2.90;;
14770;SDS011;7477;45.222;5.688;2024-01-27T14:06:22;3.65;;;2.72;;
14770;SDS011;7477;45.222;5.688;2024-01-27T14:09:43;4.88;;;2.60;;
14770;SDS011;7477;45.222;5.688;2024-01-27T14:13:03;3.05;;;2.55;;
14770;SDS011;7477;45.222;5.688;2024-01-27T14:16:27;3.30;;;2.88;;
14770;SDS011;7477;45.222;5.688;2024-01-27T14:19:47;3.92;;;2.80;;
14770;SDS011;7477;45.222;5.688;2024-01-27T14:23:06;2.85;;;2.60;;
14770;SDS011;7477;45.222;5.688;2024-01-27T14:26:25;2.55;;;2.35;;
14770;SDS011;7477;45.222;5.688;2024-01-27T14:29:46;3.10;;;2.47;;
14770;SDS011;7477;45.222;5.688;2024-01-27T14:33:06;2.67;;;2.28;;
14770;SDS011;7477;45.222;5.688;2024-01-27T14:36:25;2.28;;;2.10;;
14770;SDS011;7477;45.222;5.688;2024-01-27T14:39:45;2.63;;;2.42;;
14770;SDS011;7477;45.222;5.688;2024-01-27T14:43:05;3.25;;;2.78;;
14770;SDS011;7477;45.222;5.688;2024-01-27T14:46:28;3.17;;;2.88;;
14770;SDS011;7477;45.222;5.688;2024-01-27T14:49:48;3.58;;;2.60;;
14770;SDS011;7477;45.222;5.688;2024-01-27T14:53:07;4.10;;;2.70;;
14770;SDS011;7477;45.222;5.688;2024-01-27T14:56:26;2.20;;;2.00;;
14770;SDS011;7477;45.222;5.688;2024-01-27T14:59:45;3.08;;;2.78;;
14770;SDS011;7477;45.222;5.688;2024-01-27T15:03:05;3.28;;;2.90;;
14770;SDS011;7477;45.222;5.688;2024-01-27T15:06:25;2.47;;;2.28;;
14770;SDS011;7477;45.222;5.688;2024-01-27T15:09:44;2.30;;;2.10;;
14770;SDS011;7477;45.222;5.688;2024-01-27T15:13:03;2.90;;;2.50;;
14770;SDS011;7477;45.222;5.688;2024-01-27T15:16:22;2.50;;;2.13;;
14770;SDS011;7477;45.222;5.688;2024-01-27T15:19:42;2.60;;;2.33;;
14770;SDS011;7477;45.222;5.688;2024-01-27T15:23:01;2.47;;;2.25;;
14770;SDS011;7477;45.222;5.688;2024-01-27T15:26:21;2.58;;;2.38;;
14770;SDS011;7477;45.222;5.688;2024-01-27T15:29:41;2.20;;;2.00;;
14770;SDS011;7477;45.222;5.688;2024-01-27T15:33:01;2.47;;;2.28;;
14770;SDS011;7477;45.222;5.688;2024-01-27T15:36:21;2.30;;;2.10;;
14770;SDS011;7477;45.222;5.688;2024-01-27T15:39:40;2.60;;;2.17;;
14770;SDS011;7477;45.222;5.688;2024-01-27T15:43:01;2.50;;;2.30;;
14770;SDS011;7477;45.222;5.688;2024-01-27T15:46:21;4.95;;;3.90;;
14770;SDS011;7477;45.222;5.688;2024-01-27T15:49:40;5.80;;;4.10;;
14770;SDS011;7477;45.222;5.688;2024-01-27T15:53:00;3.17;;;2.67;;
14770;SDS011;7477;45.222;5.688;2024-01-27T15:56:19;4.25;;;2.03;;
14770;SDS011;7477;45.222;5.688;2024-01-27T15:59:39;2.67;;;2.45;;
14770;SDS011;7477;45.222;5.688;2024-01-27T16:02:58;2.35;;;2.03;;
14770;SDS011;7477;45.222;5.688;2024-01-27T16:06:17;2.25;;;1.90;;
14770;SDS011;7477;45.222;5.688;2024-01-27T16:09:40;2.45;;;2.22;;
14770;SDS011;7477;45.222;5.688;2024-01-27T16:13:05;2.72;;;2.10;;
14770;SDS011;7477;45.222;5.688;2024-01-27T16:16:24;1.90;;;1.80;;
14770;SDS011;7477;45.222;5.688;2024-01-27T16:19:45;2.35;;;2.15;;
14770;SDS011;7477;45.222;5.688;2024-01-27T16:23:04;5.03;;;3.38;;
14770;SDS011;7477;45.222;5.688;2024-01-27T16:26:24;2.83;;;2.50;;
14770;SDS011;7477;45.222;5.688;2024-01-27T16:29:46;4.10;;;3.60;;
14770;SDS011;7477;45.222;5.688;2024-01-27T16:33:05;5.53;;;3.90;;
14770;SDS011;7477;45.222;5.688;2024-01-27T16:36:25;3.10;;;2.80;;
14770;SDS011;7477;45.222;5.688;2024-01-27T16:39:45;4.10;;;3.20;;
14770;SDS011;7477;45.222;5.688;2024-01-27T16:43:04;4.40;;;3.75;;
14770;SDS011;7477;45.222;5.688;2024-01-27T16:46:24;4.78;;;3.55;;
14770;SDS011;7477;45.222;5.688;2024-01-27T16:49:43;4.07;;;3.58;;
14770;SDS011;7477;45.222;5.688;2024-01-27T16:53:05;4.90;;;2.92;;
14770;SDS011;7477;45.222;5.688;2024-01-27T16:56:24;4.82;;;3.80;;
14770;SDS011;7477;45.222;5.688;2024-01-27T16:59:44;4.82;;;3.35;;
14770;SDS011;7477;45.222;5.688;2024-01-27T17:03:04;4.85;;;3.95;;
14770;SDS011;7477;45.222;5.688;2024-01-27T17:06:23;4.43;;;3.72;;
14770;SDS011;7477;45.222;5.688;2024-01-27T17:09:42;6.00;;;4.05;;
14770;SDS011;7477;45.222;5.688;2024-01-27T17:13:01;6.07;;;3.63;;
14770;SDS011;7477;45.222;5.688;2024-01-27T17:16:20;7.00;;;4.75;;
14770;SDS011;7477;45.222;5.688;2024-01-27T17:19:39;6.80;;;4.75;;
14770;SDS011;7477;45.222;5.688;2024-01-27T17:22:59;5.80;;;4.38;;
14770;SDS011;7477;45.222;5.688;2024-01-27T17:26:18;5.47;;;4.32;;
14770;SDS011;7477;45.222;5.688;2024-01-27T17:29:37;6.70;;;4.57;;
14770;SDS011;7477;45.222;5.688;2024-01-27T17:32:57;7.47;;;5.13;;
14770;SDS011;7477;45.222;5.688;2024-01-27T17:36:16;7.80;;;5.03;;
14770;SDS011;7477;45.222;5.688;2024-01-27T17:39:35;6.22;;;4.97;;
14770;SDS011;7477;45.222;5.688;2024-01-27T17:42:54;5.05;;;4.25;;
14770;SDS011;7477;45.222;5.688;2024-01-27T17:46:13;5.47;;;4.47;;
14770;SDS011;7477;45.222;5.688;2024-01-27T17:49:32;6.07;;;5.00;;
14770;SDS011;7477;45.222;5.688;2024-01-27T17:52:51;7.65;;;5.45;;
14770;SDS011;7477;45.222;5.688;2024-01-27T17:56:19;9.60;;;6.80;;
14770;SDS011;7477;45.222;5.688;2024-01-27T17:59:47;8.13;;;6.22;;
14770;SDS011;7477;45.222;5.688;2024-01-27T18:03:06;8.43;;;5.88;;
14770;SDS011;7477;45.222;5.688;2024-01-27T18:06:25;5.82;;;5.20;;
14770;SDS011;7477;45.222;5.688;2024-01-27T18:09:44;8.73;;;5.72;;
14770;SDS011;7477;45.222;5.688;2024-01-27T18:13:03;8.18;;;5.68;;
14770;SDS011;7477;45.222;5.688;2024-01-27T18:16:22;7.50;;;5.32;;
14770;SDS011;7477;45.222;5.688;2024-01-27T18:19:43;6.75;;;5.30;;
14770;SDS011;7477;45.222;5.688;2024-01-27T18:23:03;5.72;;;5.10;;
14770;SDS011;7477;45.222;5.688;2024-01-27T18:26:22;8.18;;;6.38;;
14770;SDS011;7477;45.222;5.688;2024-01-27T18:29:41;7.38;;;6.07;;
14770;SDS011;7477;45.222;5.688;2024-01-27T18:33:01;8.00;;;6.20;;
14770;SDS011;7477;45.222;5.688;2024-01-27T18:36:21;5.82;;;4.55;;
14770;SDS011;7477;45.222;5.688;2024-01-27T18:39:40;5.78;;;4.20;;
14770;SDS011;7477;45.222;5.688;2024-01-27T18:42:59;7.95;;;4.78;;
14770;SDS011;7477;45.222;5.688;2024-01-27T18:46:19;8.80;;;6.88;;
14770;SDS011;7477;45.222;5.688;2024-01-27T18:49:38;14.32;;;8.35;;
14770;SDS011;7477;45.222;5.688;2024-01-27T18:52:58;15.63;;;10.52;;
14770;SDS011;7477;45.222;5.688;2024-01-27T18:56:16;6.20;;;4.18;;
14770;SDS011;7477;45.222;5.688;2024-01-27T18:59:36;5.45;;;4.43;;
14770;SDS011;7477;45.222;5.688;2024-01-27T19:02:56;5.75;;;4.03;;
14770;SDS011;7477;45.222;5.688;2024-01-27T19:06:15;6.45;;;4.40;;
14770;SDS011;7477;45.222;5.688;2024-01-27T19:09:37;4.68;;;3.75;;
14770;SDS011;7477;45.222;5.688;2024-01-27T19:12:56;5.20;;;4.53;;
14770;SDS011;7477;45.222;5.688;2024-01-27T19:16:16;5.65;;;4.97;;
14770;SDS011;7477;45.222;5.688;2024-01-27T19:19:35;4.88;;;3.85;;
14770;SDS011;7477;45.222;5.688;2024-01-27T19:22:54;7.80;;;4.55;;
14770;SDS011;7477;45.222;5.688;2024-01-27T19:26:13;5.85;;;4.47;;
14770;SDS011;7477;45.222;5.688;2024-01-27T19:29:32;4.95;;;3.97;;
14770;SDS011;7477;45.222;5.688;2024-01-27T19:32:52;5.25;;;3.95;;
14770;SDS011;7477;45.222;5.688;2024-01-27T19:36:12;4.78;;;3.78;;
14770;SDS011;7477;45.222;5.688;2024-01-27T19:39:32;5.70;;;4.38;;
14770;SDS011;7477;45.222;5.688;2024-01-27T19:42:51;5.85;;;4.05;;
14770;SDS011;7477;45.222;5.688;2024-01-27T19:46:10;4.38;;;3.78;;
14770;SDS011;7477;45.222;5.688;2024-01-27T19:49:31;5.05;;;3.60;;
14770;SDS011;7477;45.222;5.688;2024-01-27T19:52:51;4.28;;;3.88;;
14770;SDS011;7477;45.222;5.688;2024-01-27T19:56:13;4.63;;;4.00;;
14770;SDS011;7477;45.222;5.688;2024-01-27T19:59:32;7.70;;;4.85;;
14770;SDS011;7477;45.222;5.688;2024-01-27T20:02:52;9.02;;;5.78;;
14770;SDS011;7477;45.222;5.688;2024-01-27T20:06:11;7.07;;;4.80;;
14770;SDS011;7477;45.222;5.688;2024-01-27T20:09:31;6.93;;;5.05;;
14770;SDS011;7477;45.222;5.688;2024-01-27T20:12:50;9.18;;;6.00;;
14770;SDS011;7477;45.222;5.688;2024-01-27T20:16:15;7.90;;;4.38;;
14770;SDS011;7477;45.222;5.688;2024-01-27T20:19:34;7.53;;;4.72;;